Farm Ridge, Illinois
Current Conditions -  °F | °C
As of 7:35 PM on Monday 20 Oct 2014 (Local Time) from KVYS Reporting Station
Scattered Clouds Scattered Clouds  
Wind Chill: 55°   Ceiling: Unl
Heat Index: 55°   Visibility: 10mi
Dew Point: 44°   Wind: 6mph
Humidity: 67%   Direction: 320°NW
Pressure: 29.97"   Gusts: NA
Location:  41.2419°N, 88.7998°W
Report Text: KVYS 210035Z AUTO 32005KT 10SM SCT055 13/07 A2997 RMK AO2 T01250065
Loading
Personal Weather Stations






























Interactive Weather Map New forecast layout! Learn more

10-Day Weather Forecast

Advertisements
Track Severe Weather on mobile